Weather at Saskatoon John G. Diefenbaker International Airport

Public forecast

Using degrees Celsius for public forecast. Weather courtesy of forecast.io.

Current aviation weather report (METAR) for Saskatoon John G. Diefenbaker International Airport

Retrieved 2020/09/22 01:00 UTC (4 minutes ago):

CYXE 220100Z 15005KT 15SM BKN300 19/08 A2986 RMK CI7 SLP125 DENSITY ALT 2600FT

Aviation forecast (TAF) for Saskatoon John G. Diefenbaker International Airport

Retrieved 2020-09-22 00:39 UTC (25 minutes ago):

TAF CYXE 212338Z 2200/2224 20007KT P6SM SKC FM220600 20005KT P6SM FEW080 BKN220 BECMG 2209/2211 30006KT FM221500 35009KT P6SM FEW120 SCT240 RMK NXT FCST BY 220600Z